메인 페이지
METAR-TAF:

METAR-TAF

공항 :

베오그라드 니콜라 테슬라 국제공항

베오그라드, 세르비아

위도: 44-49N, 경도: 020-17E, 고도: 96m

현재 날씨관측

예보는 14분 전, 22:00시(UTC)에 발표되었습니다.
동북동3kt
온도 24°C
습도 65%
기압 1018 hPa
시정 10km 이상
1500m 미만 상공 구름 및 적란운 없음

METAR: LYBE 182200Z 06003KT CAVOK 24/17 Q1018 NOSIG

시각: 00:14 (22:14 UTC)

예보

예보는 5 시간 14분 전, 17:00시(UTC)에 발표되었습니다.
예보 대상 시간: 18일 18시부터 19일 18시까지 (UTC)
북북동5kt
시정 10km 이상
1500m 미만 상공 구름 및 적란운 없음

TAF: LYBE 181700Z 1818/1918 03005KT CAVOK TX33/1913Z TN19/1903Z

4,000개 이상의 공항 관측 자료 및 예보 (METAR 및 TAF 보고).

지도상에서 검색 가능한 기상관측소가 노란 점과 빨간 점으로 표시되어 있습니다.

기상관측소 명을 보려면 표시 위로 마우스를 이동하세요.

날씨 관측과 예보를 보려면 클릭하세요.

지도 변경 : 확대하려면 엑스 표시가 있는 녹색 버튼, 축소하려면 빼기 표시가 있는 녹색 버튼, 다음 페이지의 지도를 보려면 녹색 화살표를 클릭하세요.


METAR-TAF: